createdAt,value
2023-02-13T00:02:26.680Z,12.00
2023-02-13T00:07:30.172Z,10.38
2023-02-13T00:12:35.577Z,12.65
2023-02-13T00:17:38.754Z,9.05
2023-02-13T00:22:41.999Z,13.25
2023-02-13T00:27:46.626Z,8.35
2023-02-13T00:32:49.814Z,8.40
2023-02-13T00:37:52.939Z,7.93
2023-02-13T00:42:57.732Z,8.45
2023-02-13T00:48:00.971Z,6.15
2023-02-13T00:53:04.272Z,6.30
2023-02-13T00:58:08.804Z,6.43
2023-02-13T01:03:12.319Z,5.50
2023-02-13T01:08:17.041Z,4.32
2023-02-13T01:13:22.416Z,5.90
2023-02-13T01:18:25.754Z,6.03
2023-02-13T01:23:31.764Z,7.07
2023-02-13T01:28:36.646Z,4.18
2023-02-13T01:33:41.211Z,6.15
2023-02-13T01:38:44.463Z,5.03
2023-02-13T01:43:54.797Z,5.75
2023-02-13T01:49:01.350Z,7.95
2023-02-13T01:54:09.260Z,4.53
2023-02-13T01:59:19.390Z,8.23
2023-02-13T02:04:26.943Z,7.07
2023-02-13T02:09:33.489Z,6.78
2023-02-13T02:14:40.354Z,8.25
2023-02-13T02:19:51.097Z,13.80
2023-02-13T02:25:12.123Z,11.52
2023-02-13T02:30:56.100Z,12.13
2023-02-13T02:36:12.898Z,12.82
2023-02-13T02:41:44.178Z,9.30
2023-02-13T02:47:26.381Z,8.23
2023-02-13T02:52:42.990Z,7.55
2023-02-13T02:58:14.080Z,8.70
2023-02-13T03:03:38.989Z,9.68
2023-02-13T03:09:05.908Z,8.52
2023-02-13T03:14:11.597Z,10.75
2023-02-13T03:19:41.464Z,12.55
2023-02-13T03:24:53.054Z,9.13
2023-02-13T03:30:07.464Z,11.43
2023-02-13T03:35:46.357Z,15.55
2023-02-13T03:41:13.542Z,14.98
2023-02-13T03:46:18.179Z,22.05
2023-02-13T03:51:27.987Z,16.90
2023-02-13T03:56:53.884Z,27.65
2023-02-13T04:02:01.690Z,22.05
2023-02-13T04:07:08.601Z,19.75
2023-02-13T04:12:18.911Z,15.23
2023-02-13T04:17:27.259Z,16.85
2023-02-13T04:22:31.599Z,26.67
2023-02-13T04:27:36.644Z,22.10
2023-02-13T04:32:39.800Z,16.05
2023-02-13T04:37:43.078Z,25.92
2023-02-13T04:42:49.433Z,23.70
2023-02-13T04:47:54.256Z,15.93
2023-02-13T04:52:58.552Z,29.50
2023-02-13T04:58:03.036Z,22.98
2023-02-13T05:03:07.164Z,16.53
2023-02-13T05:08:10.973Z,22.63
2023-02-13T05:13:17.100Z,16.23
2023-02-13T05:18:20.364Z,18.42
2023-02-13T05:23:23.691Z,23.83
2023-02-13T05:29:03.875Z,16.90
2023-02-13T05:34:07.406Z,20.30
2023-02-13T05:39:10.681Z,18.20
2023-02-13T05:44:15.951Z,20.75
2023-02-13T05:49:19.356Z,19.33
2023-02-13T05:54:22.800Z,15.38
2023-02-13T05:59:27.435Z,21.33
2023-02-13T06:04:30.653Z,16.23
2023-02-13T06:09:33.818Z,18.73
2023-02-13T06:14:38.269Z,16.20
2023-02-13T06:19:42.110Z,19.42
2023-02-13T06:24:45.238Z,13.45
2023-02-13T06:29:49.739Z,12.85
2023-02-13T06:34:52.933Z,26.07
2023-02-13T06:39:56.180Z,14.80
2023-02-13T06:45:01.018Z,13.57
2023-02-13T06:50:05.010Z,16.25
2023-02-13T06:55:08.416Z,17.05
2023-02-13T07:00:16.004Z,12.77
2023-02-13T07:05:19.423Z,16.02
2023-02-13T07:10:22.642Z,16.98
2023-02-13T07:15:28.584Z,10.23
2023-02-13T07:20:32.641Z,21.23
2023-02-13T07:25:35.934Z,17.48
2023-02-13T07:30:40.630Z,12.68
2023-02-13T07:35:46.679Z,12.50
2023-02-13T07:40:49.918Z,14.98
2023-02-13T07:45:57.960Z,16.60
2023-02-13T07:51:02.843Z,10.10
2023-02-13T07:56:06.857Z,14.98
2023-02-13T08:01:14.181Z,11.65
2023-02-13T08:06:17.953Z,17.67
2023-02-13T08:11:45.065Z,10.70
2023-02-13T08:16:49.677Z,17.17
2023-02-13T08:21:52.926Z,11.03
2023-02-13T08:26:56.330Z,17.02
2023-02-13T08:32:00.900Z,14.23
2023-02-13T08:37:04.237Z,9.60
2023-02-13T08:42:07.501Z,14.15
2023-02-13T08:47:12.171Z,10.23
2023-02-13T08:52:15.360Z,8.93
2023-02-13T08:57:18.985Z,11.80
2023-02-13T09:02:24.178Z,15.23
2023-02-13T09:07:27.380Z,12.70
2023-02-13T09:12:30.538Z,14.98
2023-02-13T09:17:35.205Z,14.80
2023-02-13T09:22:39.147Z,18.30
2023-02-13T09:27:42.703Z,14.38
2023-02-13T09:32:47.682Z,20.73
2023-02-13T09:37:50.924Z,18.35
2023-02-13T09:43:04.633Z,16.90
2023-02-13T09:48:14.818Z,18.63
2023-02-13T09:53:23.221Z,18.98
2023-02-13T09:58:39.854Z,15.52
2023-02-13T10:03:48.228Z,17.95
2023-02-13T10:09:04.929Z,17.13
2023-02-13T10:14:16.544Z,16.60
2023-02-13T10:19:34.585Z,16.02
2023-02-13T10:24:42.717Z,18.52
2023-02-13T10:30:06.332Z,17.52
2023-02-13T10:35:21.045Z,19.20
2023-02-13T10:40:32.009Z,19.67
2023-02-13T10:45:51.373Z,21.80
2023-02-13T10:51:02.859Z,24.15
2023-02-13T10:56:25.457Z,22.65
2023-02-13T11:01:36.017Z,23.35
2023-02-13T11:06:44.024Z,21.52
2023-02-13T11:11:47.523Z,22.63
2023-02-13T11:16:54.858Z,27.20
2023-02-13T11:22:04.631Z,22.50
2023-02-13T11:27:13.637Z,20.70
2023-02-13T11:32:22.101Z,22.92
2023-02-13T11:37:28.984Z,24.05
2023-02-13T11:42:35.881Z,23.35
2023-02-13T11:47:41.708Z,23.13
2023-02-13T11:52:54.913Z,20.30
2023-02-13T11:58:00.920Z,27.08
2023-02-13T12:03:26.625Z,19.58
2023-02-13T12:08:33.630Z,21.65
2023-02-13T12:13:39.069Z,22.88
2023-02-13T12:23:57.651Z,21.70
2023-02-13T12:29:23.129Z,22.38
2023-02-13T12:34:59.030Z,19.80
2023-02-13T12:40:32.282Z,23.92
2023-02-13T12:45:41.039Z,21.90
2023-02-13T12:51:02.728Z,18.45
2023-02-13T12:56:35.548Z,25.33
2023-02-13T13:02:10.602Z,20.80
2023-02-13T13:07:29.691Z,19.38
2023-02-13T13:12:45.240Z,20.55
2023-02-13T13:17:58.277Z,17.17
2023-02-13T13:23:08.010Z,20.50
2023-02-13T13:28:17.682Z,18.88
2023-02-13T13:33:23.337Z,21.60
2023-02-13T13:38:41.078Z,20.98
2023-02-13T13:44:02.106Z,18.80
2023-02-13T13:49:24.107Z,18.50
2023-02-13T13:54:37.217Z,20.55
2023-02-13T14:00:20.015Z,23.48
2023-02-13T14:05:30.943Z,18.70
2023-02-13T14:11:25.359Z,22.13
2023-02-13T14:16:40.709Z,18.33
2023-02-13T14:21:45.575Z,15.07
2023-02-13T14:27:04.922Z,19.40
2023-02-13T14:32:19.118Z,14.98
2023-02-13T14:37:32.363Z,17.60
2023-02-13T14:42:36.884Z,22.20
2023-02-13T14:47:42.987Z,22.43
2023-02-13T14:52:48.793Z,18.30
2023-02-13T14:57:54.304Z,21.02
2023-02-13T15:03:02.358Z,24.65
2023-02-13T15:08:13.938Z,21.90
2023-02-13T15:13:20.338Z,17.38
2023-02-13T15:18:26.359Z,16.60
2023-02-13T15:23:32.598Z,19.95
2023-02-13T15:28:36.811Z,21.00
2023-02-13T15:33:45.435Z,21.63
2023-02-13T15:38:50.166Z,17.48
2023-02-13T15:43:57.878Z,17.70
2023-02-13T15:49:05.481Z,21.83
2023-02-13T15:54:23.515Z,21.80
2023-02-13T15:59:32.095Z,21.67
2023-02-13T16:04:35.976Z,18.95
2023-02-13T16:09:40.505Z,18.08
2023-02-13T16:14:49.715Z,21.20
2023-02-13T16:19:56.826Z,20.35
2023-02-13T16:25:20.748Z,27.40
2023-02-13T16:30:30.717Z,21.85
2023-02-13T16:35:38.227Z,22.25
2023-02-13T16:40:44.491Z,21.88
2023-02-13T16:45:47.985Z,22.00
2023-02-13T16:50:55.537Z,26.60
2023-02-13T16:56:03.320Z,24.33
2023-02-13T17:01:07.093Z,27.10
2023-02-13T17:06:10.984Z,21.52
2023-02-13T17:11:18.926Z,28.10
2023-02-13T17:16:25.355Z,17.80
2023-02-13T17:21:29.043Z,23.25
2023-02-13T17:26:34.087Z,26.45
2023-02-13T17:31:37.433Z,26.73
2023-02-13T17:36:40.910Z,22.65
2023-02-13T17:41:45.606Z,22.20
2023-02-13T17:46:49.304Z,30.05
2023-02-13T17:51:52.532Z,20.55
2023-02-13T17:56:57.085Z,21.77
2023-02-13T18:02:00.548Z,27.10
2023-02-13T18:07:03.767Z,26.02
2023-02-13T18:12:13.963Z,42.38
2023-02-13T18:17:18.158Z,38.30
2023-02-13T18:22:21.350Z,31.95
2023-02-13T18:27:27.030Z,23.00
2023-02-13T18:32:30.570Z,24.13
2023-02-13T18:37:34.278Z,25.95
2023-02-13T18:42:39.086Z,29.73
2023-02-13T18:47:42.372Z,24.25
2023-02-13T18:52:46.695Z,29.25
2023-02-13T18:57:53.398Z,23.80
2023-02-13T19:02:58.667Z,21.73
2023-02-13T19:13:06.372Z,30.27
2023-02-13T19:18:09.499Z,32.03
2023-02-13T19:23:13.097Z,29.38
2023-02-13T19:28:17.701Z,26.48
2023-02-13T19:33:21.489Z,30.35
2023-02-13T19:38:24.780Z,27.77
2023-02-13T19:43:29.347Z,25.42
2023-02-13T19:48:33.333Z,29.53
2023-02-13T19:53:36.497Z,30.42
2023-02-13T19:58:42.583Z,30.33
2023-02-13T20:03:45.965Z,30.70
2023-02-13T20:08:49.477Z,29.67
2023-02-13T20:13:55.920Z,33.97
2023-02-13T20:19:01.834Z,30.60
2023-02-13T20:24:05.813Z,29.88
2023-02-13T20:29:10.546Z,29.63
2023-02-13T20:34:14.266Z,32.15
2023-02-13T20:39:18.039Z,24.17
2023-02-13T20:44:22.914Z,28.88
2023-02-13T20:49:26.709Z,28.20
2023-02-13T20:54:30.095Z,32.20
2023-02-13T20:59:34.542Z,31.25
2023-02-13T21:04:38.087Z,31.48
2023-02-13T21:09:41.385Z,22.55
2023-02-13T21:14:45.904Z,32.90
2023-02-13T21:19:49.190Z,36.33
2023-02-13T21:24:52.695Z,29.35
2023-02-13T21:29:58.067Z,27.83
2023-02-13T21:35:01.209Z,22.02
2023-02-13T21:40:05.862Z,29.50
2023-02-13T21:45:11.905Z,27.47
2023-02-13T21:50:15.071Z,30.90
2023-02-13T21:55:18.586Z,29.63
2023-02-13T22:00:23.542Z,24.90
2023-02-13T22:05:26.860Z,27.95
2023-02-13T22:10:29.964Z,19.45
2023-02-13T22:15:34.517Z,25.58
2023-02-13T22:20:37.687Z,28.73
2023-02-13T22:25:46.618Z,24.40
2023-02-13T22:30:51.396Z,33.42
2023-02-13T22:35:54.712Z,28.25
2023-02-13T22:41:04.681Z,35.22
2023-02-13T22:46:12.572Z,23.60
2023-02-13T22:51:18.907Z,26.23
2023-02-13T22:56:23.785Z,30.40
2023-02-13T23:01:29.196Z,25.63
2023-02-13T23:11:54.146Z,30.58
2023-02-13T23:17:17.305Z,27.95
2023-02-13T23:22:20.527Z,30.88
2023-02-13T23:27:23.884Z,26.80
2023-02-13T23:32:29.033Z,23.48
2023-02-13T23:37:32.487Z,34.92
2023-02-13T23:42:35.748Z,26.17
2023-02-13T23:47:40.384Z,25.65
2023-02-13T23:52:43.562Z,25.75
2023-02-13T23:57:51.900Z,25.23
